sensor_id;sensor_type;location;lat;lon;timestamp;temperature;humidity
54788;DHT22;59598;48.112;16.280;2023-01-28T00:00:10;-0.80;99.90
54788;DHT22;59598;48.112;16.280;2023-01-28T00:02:42;-0.80;99.90
54788;DHT22;59598;48.112;16.280;2023-01-28T00:05:19;-0.90;99.90
54788;DHT22;59598;48.112;16.280;2023-01-28T00:07:55;-0.90;99.90
54788;DHT22;59598;48.112;16.280;2023-01-28T00:10:29;-0.80;99.90
54788;DHT22;59598;48.112;16.280;2023-01-28T00:13:02;-0.80;99.90
54788;DHT22;59598;48.112;16.280;2023-01-28T00:15:33;-0.80;99.90
54788;DHT22;59598;48.112;16.280;2023-01-28T00:18:04;-0.80;99.90
54788;DHT22;59598;48.112;16.280;2023-01-28T00:20:36;-0.80;99.90
54788;DHT22;59598;48.112;16.280;2023-01-28T00:23:07;-0.80;99.90
54788;DHT22;59598;48.112;16.280;2023-01-28T00:25:43;-0.80;99.90
54788;DHT22;59598;48.112;16.280;2023-01-28T00:28:14;-0.80;99.90
54788;DHT22;59598;48.112;16.280;2023-01-28T00:30:45;-0.80;99.90
54788;DHT22;59598;48.112;16.280;2023-01-28T00:33:17;-0.80;99.90
54788;DHT22;59598;48.112;16.280;2023-01-28T00:35:59;-0.80;99.90
54788;DHT22;59598;48.112;16.280;2023-01-28T00:38:32;-0.80;99.90
54788;DHT22;59598;48.112;16.280;2023-01-28T00:41:11;-0.80;99.90
54788;DHT22;59598;48.112;16.280;2023-01-28T00:43:43;-0.80;99.90
54788;DHT22;59598;48.112;16.280;2023-01-28T00:46:16;-0.80;99.90
54788;DHT22;59598;48.112;16.280;2023-01-28T00:48:51;-0.80;99.90
54788;DHT22;59598;48.112;16.280;2023-01-28T00:51:22;-0.90;99.90
54788;DHT22;59598;48.112;16.280;2023-01-28T00:53:55;-0.80;99.90
54788;DHT22;59598;48.112;16.280;2023-01-28T00:59:54;-0.90;99.90
54788;DHT22;59598;48.112;16.280;2023-01-28T01:02:25;-0.80;99.90
54788;DHT22;59598;48.112;16.280;2023-01-28T01:04:57;-0.90;99.90
54788;DHT22;59598;48.112;16.280;2023-01-28T01:07:30;-0.80;99.90
54788;DHT22;59598;48.112;16.280;2023-01-28T01:10:16;-0.80;99.90
54788;DHT22;59598;48.112;16.280;2023-01-28T01:12:48;-0.80;99.90
54788;DHT22;59598;48.112;16.280;2023-01-28T01:15:20;-0.80;99.90
54788;DHT22;59598;48.112;16.280;2023-01-28T01:17:51;-0.80;99.90
54788;DHT22;59598;48.112;16.280;2023-01-28T01:20:26;-0.80;99.90
54788;DHT22;59598;48.112;16.280;2023-01-28T01:22:57;-0.80;99.90
54788;DHT22;59598;48.112;16.280;2023-01-28T01:25:30;-0.80;99.90
54788;DHT22;59598;48.112;16.280;2023-01-28T01:28:04;-0.80;99.90
54788;DHT22;59598;48.112;16.280;2023-01-28T01:30:35;-0.80;99.90
54788;DHT22;59598;48.112;16.280;2023-01-28T01:33:09;-0.80;99.90
54788;DHT22;59598;48.112;16.280;2023-01-28T01:35:43;-0.80;99.90
54788;DHT22;59598;48.112;16.280;2023-01-28T01:38:14;-0.80;99.90
54788;DHT22;59598;48.112;16.280;2023-01-28T01:40:50;-0.80;99.90
54788;DHT22;59598;48.112;16.280;2023-01-28T01:43:46;-0.80;99.90
54788;DHT22;59598;48.112;16.280;2023-01-28T01:46:22;-0.80;99.90
54788;DHT22;59598;48.112;16.280;2023-01-28T01:48:55;-0.80;99.90
54788;DHT22;59598;48.112;16.280;2023-01-28T01:51:32;-0.80;99.90
54788;DHT22;59598;48.112;16.280;2023-01-28T01:54:05;-0.80;99.90
54788;DHT22;59598;48.112;16.280;2023-01-28T01:56:43;-0.80;99.90
54788;DHT22;59598;48.112;16.280;2023-01-28T01:59:26;-0.80;99.90
54788;DHT22;59598;48.112;16.280;2023-01-28T02:02:04;-0.80;99.90
54788;DHT22;59598;48.112;16.280;2023-01-28T02:04:41;-0.80;99.90
54788;DHT22;59598;48.112;16.280;2023-01-28T02:07:17;-0.80;99.90
54788;DHT22;59598;48.112;16.280;2023-01-28T02:09:50;-0.80;99.90
54788;DHT22;59598;48.112;16.280;2023-01-28T02:12:25;-0.80;99.90
54788;DHT22;59598;48.112;16.280;2023-01-28T02:17:35;-0.80;99.90
54788;DHT22;59598;48.112;16.280;2023-01-28T02:20:10;-0.80;99.90
54788;DHT22;59598;48.112;16.280;2023-01-28T02:29:08;-0.80;99.90
54788;DHT22;59598;48.112;16.280;2023-01-28T02:34:51;-0.80;99.90
54788;DHT22;59598;48.112;16.280;2023-01-28T02:37:37;-0.80;99.90
54788;DHT22;59598;48.112;16.280;2023-01-28T02:40:19;-0.80;99.90
54788;DHT22;59598;48.112;16.280;2023-01-28T02:42:52;-0.80;99.90
54788;DHT22;59598;48.112;16.280;2023-01-28T02:45:31;-0.90;99.90
54788;DHT22;59598;48.112;16.280;2023-01-28T02:48:22;-0.90;99.90
54788;DHT22;59598;48.112;16.280;2023-01-28T02:51:17;-0.90;99.90
54788;DHT22;59598;48.112;16.280;2023-01-28T02:54:06;-0.90;99.90
54788;DHT22;59598;48.112;16.280;2023-01-28T02:59:48;-0.90;99.90
54788;DHT22;59598;48.112;16.280;2023-01-28T03:02:29;-0.80;99.90
54788;DHT22;59598;48.112;16.280;2023-01-28T03:07:49;-0.90;99.90
54788;DHT22;59598;48.112;16.280;2023-01-28T03:10:25;-0.90;99.90
54788;DHT22;59598;48.112;16.280;2023-01-28T03:12:59;-0.90;99.90
54788;DHT22;59598;48.112;16.280;2023-01-28T03:15:51;-0.90;99.90
54788;DHT22;59598;48.112;16.280;2023-01-28T03:18:45;-0.90;99.90
54788;DHT22;59598;48.112;16.280;2023-01-28T03:21:37;-0.90;99.90
54788;DHT22;59598;48.112;16.280;2023-01-28T03:24:47;-0.90;99.90
54788;DHT22;59598;48.112;16.280;2023-01-28T03:27:57;-0.90;99.90
54788;DHT22;59598;48.112;16.280;2023-01-28T03:31:09;-0.90;99.90
54788;DHT22;59598;48.112;16.280;2023-01-28T03:34:02;-0.90;99.90
54788;DHT22;59598;48.112;16.280;2023-01-28T03:36:54;-0.90;99.90
54788;DHT22;59598;48.112;16.280;2023-01-28T03:39:29;-1.00;99.90
54788;DHT22;59598;48.112;16.280;2023-01-28T03:42:09;-0.90;99.90
54788;DHT22;59598;48.112;16.280;2023-01-28T03:44:46;-0.90;99.90
54788;DHT22;59598;48.112;16.280;2023-01-28T03:47:25;-0.90;99.90
54788;DHT22;59598;48.112;16.280;2023-01-28T03:49:57;-0.90;99.90
54788;DHT22;59598;48.112;16.280;2023-01-28T03:52:55;-0.90;99.90
54788;DHT22;59598;48.112;16.280;2023-01-28T03:55:42;-1.00;99.90
54788;DHT22;59598;48.112;16.280;2023-01-28T03:58:17;-1.00;99.90
54788;DHT22;59598;48.112;16.280;2023-01-28T04:00:52;-1.00;99.90
54788;DHT22;59598;48.112;16.280;2023-01-28T04:03:29;-1.00;99.90
54788;DHT22;59598;48.112;16.280;2023-01-28T04:06:07;-1.00;99.90
54788;DHT22;59598;48.112;16.280;2023-01-28T04:08:43;-1.10;99.90
54788;DHT22;59598;48.112;16.280;2023-01-28T04:11:22;-1.10;99.90
54788;DHT22;59598;48.112;16.280;2023-01-28T04:13:58;-1.00;99.90
54788;DHT22;59598;48.112;16.280;2023-01-28T04:16:29;-1.10;99.90
54788;DHT22;59598;48.112;16.280;2023-01-28T04:19:00;-1.10;99.90
54788;DHT22;59598;48.112;16.280;2023-01-28T04:21:34;-1.00;99.90
54788;DHT22;59598;48.112;16.280;2023-01-28T04:24:06;-1.00;99.90
54788;DHT22;59598;48.112;16.280;2023-01-28T04:26:37;-1.00;99.90
54788;DHT22;59598;48.112;16.280;2023-01-28T04:29:11;-1.00;99.90
54788;DHT22;59598;48.112;16.280;2023-01-28T04:31:45;-1.10;99.90
54788;DHT22;59598;48.112;16.280;2023-01-28T04:34:17;-1.00;99.90
54788;DHT22;59598;48.112;16.280;2023-01-28T04:36:50;-1.10;99.90
54788;DHT22;59598;48.112;16.280;2023-01-28T04:39:23;-1.10;99.90
54788;DHT22;59598;48.112;16.280;2023-01-28T04:41:55;-1.10;99.90
54788;DHT22;59598;48.112;16.280;2023-01-28T04:44:31;-1.10;99.90
54788;DHT22;59598;48.112;16.280;2023-01-28T04:47:03;-1.10;99.90
54788;DHT22;59598;48.112;16.280;2023-01-28T04:49:34;-1.10;99.90
54788;DHT22;59598;48.112;16.280;2023-01-28T04:52:06;-1.10;99.90
54788;DHT22;59598;48.112;16.280;2023-01-28T04:54:39;-1.10;99.90
54788;DHT22;59598;48.112;16.280;2023-01-28T04:57:10;-1.10;99.90
54788;DHT22;59598;48.112;16.280;2023-01-28T04:59:44;-1.20;99.90
54788;DHT22;59598;48.112;16.280;2023-01-28T05:02:17;-1.10;99.90
54788;DHT22;59598;48.112;16.280;2023-01-28T05:04:51;-1.10;99.90
54788;DHT22;59598;48.112;16.280;2023-01-28T05:07:22;-1.10;99.90
54788;DHT22;59598;48.112;16.280;2023-01-28T05:09:54;-1.10;99.90
54788;DHT22;59598;48.112;16.280;2023-01-28T05:12:25;-1.10;99.90
54788;DHT22;59598;48.112;16.280;2023-01-28T05:14:56;-1.10;99.90
54788;DHT22;59598;48.112;16.280;2023-01-28T05:17:28;-1.10;99.90
54788;DHT22;59598;48.112;16.280;2023-01-28T05:20:01;-1.10;99.90
54788;DHT22;59598;48.112;16.280;2023-01-28T05:22:33;-1.10;99.90
54788;DHT22;59598;48.112;16.280;2023-01-28T05:25:08;-1.10;99.90
54788;DHT22;59598;48.112;16.280;2023-01-28T05:27:39;-1.10;99.90
54788;DHT22;59598;48.112;16.280;2023-01-28T05:30:11;-1.10;99.90
54788;DHT22;59598;48.112;16.280;2023-01-28T05:32:42;-1.10;99.90
54788;DHT22;59598;48.112;16.280;2023-01-28T05:35:14;-1.10;99.90
54788;DHT22;59598;48.112;16.280;2023-01-28T05:37:51;-1.10;99.90
54788;DHT22;59598;48.112;16.280;2023-01-28T05:40:22;-1.10;99.90
54788;DHT22;59598;48.112;16.280;2023-01-28T05:42:55;-1.10;99.90
54788;DHT22;59598;48.112;16.280;2023-01-28T05:45:26;-1.00;99.90
54788;DHT22;59598;48.112;16.280;2023-01-28T05:48:00;-1.00;99.90
54788;DHT22;59598;48.112;16.280;2023-01-28T05:50:34;-1.00;99.90
54788;DHT22;59598;48.112;16.280;2023-01-28T05:53:09;-1.10;99.90
54788;DHT22;59598;48.112;16.280;2023-01-28T05:55:40;-1.10;99.90
54788;DHT22;59598;48.112;16.280;2023-01-28T05:58:11;-1.00;99.90
54788;DHT22;59598;48.112;16.280;2023-01-28T06:00:45;-1.10;99.90
54788;DHT22;59598;48.112;16.280;2023-01-28T06:03:18;-1.10;99.90
54788;DHT22;59598;48.112;16.280;2023-01-28T06:05:51;-1.10;99.90
54788;DHT22;59598;48.112;16.280;2023-01-28T06:08:22;-1.00;99.90
54788;DHT22;59598;48.112;16.280;2023-01-28T06:10:53;-1.10;99.90
54788;DHT22;59598;48.112;16.280;2023-01-28T06:13:24;-1.00;99.90
54788;DHT22;59598;48.112;16.280;2023-01-28T06:15:59;-1.00;99.90
54788;DHT22;59598;48.112;16.280;2023-01-28T06:18:30;-1.00;99.90
54788;DHT22;59598;48.112;16.280;2023-01-28T06:21:04;-1.00;99.90
54788;DHT22;59598;48.112;16.280;2023-01-28T06:23:36;-1.00;99.90
54788;DHT22;59598;48.112;16.280;2023-01-28T06:26:07;-1.00;99.90
54788;DHT22;59598;48.112;16.280;2023-01-28T06:28:38;-0.90;99.90
54788;DHT22;59598;48.112;16.280;2023-01-28T06:31:09;-0.90;99.90
54788;DHT22;59598;48.112;16.280;2023-01-28T06:33:41;-0.90;99.90
54788;DHT22;59598;48.112;16.280;2023-01-28T06:36:12;-0.90;99.90
54788;DHT22;59598;48.112;16.280;2023-01-28T06:38:43;-0.80;99.90
54788;DHT22;59598;48.112;16.280;2023-01-28T06:41:19;-0.80;99.90
54788;DHT22;59598;48.112;16.280;2023-01-28T06:43:50;-0.80;99.90
54788;DHT22;59598;48.112;16.280;2023-01-28T06:46:23;-0.80;99.90
54788;DHT22;59598;48.112;16.280;2023-01-28T06:48:57;-0.80;99.90
54788;DHT22;59598;48.112;16.280;2023-01-28T06:51:28;-0.90;99.90
54788;DHT22;59598;48.112;16.280;2023-01-28T06:53:59;-0.90;99.90
54788;DHT22;59598;48.112;16.280;2023-01-28T06:56:31;-0.90;99.90
54788;DHT22;59598;48.112;16.280;2023-01-28T06:59:05;-0.80;99.90
54788;DHT22;59598;48.112;16.280;2023-01-28T07:01:39;-0.80;99.90
54788;DHT22;59598;48.112;16.280;2023-01-28T07:04:10;-0.70;99.90
54788;DHT22;59598;48.112;16.280;2023-01-28T07:06:44;-0.70;99.90
54788;DHT22;59598;48.112;16.280;2023-01-28T07:09:15;-0.70;99.90
54788;DHT22;59598;48.112;16.280;2023-01-28T07:11:46;-0.70;99.90
54788;DHT22;59598;48.112;16.280;2023-01-28T07:14:20;-0.70;99.90
54788;DHT22;59598;48.112;16.280;2023-01-28T07:16:51;-0.70;99.90
54788;DHT22;59598;48.112;16.280;2023-01-28T07:19:26;-0.70;99.90
54788;DHT22;59598;48.112;16.280;2023-01-28T07:21:57;-0.70;99.90
54788;DHT22;59598;48.112;16.280;2023-01-28T07:24:30;-0.70;99.90
54788;DHT22;59598;48.112;16.280;2023-01-28T07:27:02;-0.70;99.90
54788;DHT22;59598;48.112;16.280;2023-01-28T07:29:34;-0.70;99.90
54788;DHT22;59598;48.112;16.280;2023-01-28T07:32:05;-0.70;99.90
54788;DHT22;59598;48.112;16.280;2023-01-28T07:34:37;-0.80;99.90
54788;DHT22;59598;48.112;16.280;2023-01-28T07:37:09;-0.90;99.90
54788;DHT22;59598;48.112;16.280;2023-01-28T07:39:41;-0.80;99.90
54788;DHT22;59598;48.112;16.280;2023-01-28T07:42:12;-0.80;99.90
54788;DHT22;59598;48.112;16.280;2023-01-28T07:44:43;-0.80;99.90
54788;DHT22;59598;48.112;16.280;2023-01-28T07:47:14;-0.80;99.90
54788;DHT22;59598;48.112;16.280;2023-01-28T07:49:46;-0.70;99.90
54788;DHT22;59598;48.112;16.280;2023-01-28T07:52:17;-0.60;99.90
54788;DHT22;59598;48.112;16.280;2023-01-28T07:54:49;-0.60;99.90
54788;DHT22;59598;48.112;16.280;2023-01-28T07:57:21;-0.60;99.90
54788;DHT22;59598;48.112;16.280;2023-01-28T08:00:00;-0.50;99.90
54788;DHT22;59598;48.112;16.280;2023-01-28T08:02:31;-0.50;99.90
54788;DHT22;59598;48.112;16.280;2023-01-28T08:05:02;-0.60;99.90
54788;DHT22;59598;48.112;16.280;2023-01-28T08:07:33;-0.40;99.90
54788;DHT22;59598;48.112;16.280;2023-01-28T08:10:05;-0.50;99.90
54788;DHT22;59598;48.112;16.280;2023-01-28T08:12:36;-0.40;99.90
54788;DHT22;59598;48.112;16.280;2023-01-28T08:15:10;-0.40;99.90
54788;DHT22;59598;48.112;16.280;2023-01-28T08:17:41;-0.40;99.90
54788;DHT22;59598;48.112;16.280;2023-01-28T08:20:13;-0.40;99.90
54788;DHT22;59598;48.112;16.280;2023-01-28T08:22:44;-0.50;99.90
54788;DHT22;59598;48.112;16.280;2023-01-28T08:25:16;-0.40;99.90
54788;DHT22;59598;48.112;16.280;2023-01-28T08:27:47;-0.40;99.90
54788;DHT22;59598;48.112;16.280;2023-01-28T08:30:19;-0.40;99.90
54788;DHT22;59598;48.112;16.280;2023-01-28T08:32:55;-0.30;99.90
54788;DHT22;59598;48.112;16.280;2023-01-28T08:35:27;-0.20;99.90
54788;DHT22;59598;48.112;16.280;2023-01-28T08:37:59;-0.10;99.90
54788;DHT22;59598;48.112;16.280;2023-01-28T08:40:34;-0.10;99.90
54788;DHT22;59598;48.112;16.280;2023-01-28T08:43:06;0.00;99.90
54788;DHT22;59598;48.112;16.280;2023-01-28T08:45:38;0.00;99.90
54788;DHT22;59598;48.112;16.280;2023-01-28T08:48:14;0.00;99.90
54788;DHT22;59598;48.112;16.280;2023-01-28T08:50:46;0.00;99.90
54788;DHT22;59598;48.112;16.280;2023-01-28T08:53:20;0.00;99.90
54788;DHT22;59598;48.112;16.280;2023-01-28T08:55:53;0.10;99.90
54788;DHT22;59598;48.112;16.280;2023-01-28T08:58:24;0.10;99.90
54788;DHT22;59598;48.112;16.280;2023-01-28T09:00:55;0.00;99.90
54788;DHT22;59598;48.112;16.280;2023-01-28T09:03:26;0.00;99.90
54788;DHT22;59598;48.112;16.280;2023-01-28T09:06:02;0.00;99.90
54788;DHT22;59598;48.112;16.280;2023-01-28T09:08:36;-0.10;99.90
54788;DHT22;59598;48.112;16.280;2023-01-28T09:11:09;-0.10;99.90
54788;DHT22;59598;48.112;16.280;2023-01-28T09:13:46;0.00;99.90
54788;DHT22;59598;48.112;16.280;2023-01-28T09:16:17;0.00;99.90
54788;DHT22;59598;48.112;16.280;2023-01-28T09:18:48;0.00;99.90
54788;DHT22;59598;48.112;16.280;2023-01-28T09:21:21;0.00;99.90
54788;DHT22;59598;48.112;16.280;2023-01-28T09:23:52;0.10;99.90
54788;DHT22;59598;48.112;16.280;2023-01-28T09:26:25;0.10;99.90
54788;DHT22;59598;48.112;16.280;2023-01-28T09:28:56;0.20;99.90
54788;DHT22;59598;48.112;16.280;2023-01-28T09:31:30;0.30;99.90
54788;DHT22;59598;48.112;16.280;2023-01-28T09:34:04;0.20;99.90
54788;DHT22;59598;48.112;16.280;2023-01-28T09:36:37;0.20;99.90
54788;DHT22;59598;48.112;16.280;2023-01-28T09:39:09;0.20;99.90
54788;DHT22;59598;48.112;16.280;2023-01-28T09:47:43;0.30;99.90
54788;DHT22;59598;48.112;16.280;2023-01-28T09:50:32;0.30;99.90
54788;DHT22;59598;48.112;16.280;2023-01-28T09:55:45;0.20;99.90
54788;DHT22;59598;48.112;16.280;2023-01-28T09:58:18;0.30;99.90
54788;DHT22;59598;48.112;16.280;2023-01-28T10:03:53;0.30;99.90
54788;DHT22;59598;48.112;16.280;2023-01-28T10:09:36;0.40;99.90
54788;DHT22;59598;48.112;16.280;2023-01-28T10:18:05;0.40;99.90
54788;DHT22;59598;48.112;16.280;2023-01-28T10:20:46;0.40;99.90
54788;DHT22;59598;48.112;16.280;2023-01-28T10:26:23;0.50;99.90
54788;DHT22;59598;48.112;16.280;2023-01-28T10:28:59;0.50;99.90
54788;DHT22;59598;48.112;16.280;2023-01-28T10:31:34;0.50;99.90
54788;DHT22;59598;48.112;16.280;2023-01-28T10:34:08;0.60;99.90
54788;DHT22;59598;48.112;16.280;2023-01-28T10:36:41;0.70;99.90
54788;DHT22;59598;48.112;16.280;2023-01-28T10:39:14;0.70;99.90
54788;DHT22;59598;48.112;16.280;2023-01-28T10:41:46;0.80;99.90
54788;DHT22;59598;48.112;16.280;2023-01-28T10:44:37;0.80;99.90
54788;DHT22;59598;48.112;16.280;2023-01-28T10:47:16;0.70;99.90
54788;DHT22;59598;48.112;16.280;2023-01-28T10:49:53;0.60;99.90
54788;DHT22;59598;48.112;16.280;2023-01-28T10:52:26;0.70;99.90
54788;DHT22;59598;48.112;16.280;2023-01-28T10:55:05;0.70;99.90
54788;DHT22;59598;48.112;16.280;2023-01-28T10:57:40;0.70;99.90
54788;DHT22;59598;48.112;16.280;2023-01-28T11:00:35;0.70;99.90
54788;DHT22;59598;48.112;16.280;2023-01-28T11:03:18;0.60;99.90
54788;DHT22;59598;48.112;16.280;2023-01-28T11:05:51;0.60;99.90
54788;DHT22;59598;48.112;16.280;2023-01-28T11:08:25;0.60;99.90
54788;DHT22;59598;48.112;16.280;2023-01-28T11:10:57;0.50;99.90
54788;DHT22;59598;48.112;16.280;2023-01-28T11:13:29;0.40;99.90
54788;DHT22;59598;48.112;16.280;2023-01-28T11:16:05;0.40;99.90
54788;DHT22;59598;48.112;16.280;2023-01-28T11:18:58;0.50;99.90
54788;DHT22;59598;48.112;16.280;2023-01-28T11:21:33;0.50;99.90
54788;DHT22;59598;48.112;16.280;2023-01-28T11:24:16;0.50;99.90
54788;DHT22;59598;48.112;16.280;2023-01-28T11:26:52;0.50;99.90
54788;DHT22;59598;48.112;16.280;2023-01-28T11:29:38;0.40;99.90
54788;DHT22;59598;48.112;16.280;2023-01-28T11:32:19;0.40;99.90
54788;DHT22;59598;48.112;16.280;2023-01-28T11:34:54;0.40;99.90
54788;DHT22;59598;48.112;16.280;2023-01-28T11:37:28;0.50;99.90
54788;DHT22;59598;48.112;16.280;2023-01-28T11:40:01;0.40;99.90
54788;DHT22;59598;48.112;16.280;2023-01-28T11:42:32;0.50;99.90
54788;DHT22;59598;48.112;16.280;2023-01-28T11:48:10;0.50;99.90
54788;DHT22;59598;48.112;16.280;2023-01-28T11:50:59;0.50;99.90
54788;DHT22;59598;48.112;16.280;2023-01-28T12:03:16;0.50;99.90
54788;DHT22;59598;48.112;16.280;2023-01-28T12:09:00;0.50;99.90
54788;DHT22;59598;48.112;16.280;2023-01-28T12:18:11;0.50;99.90
54788;DHT22;59598;48.112;16.280;2023-01-28T12:27:04;0.60;99.90
54788;DHT22;59598;48.112;16.280;2023-01-28T12:32:47;0.60;99.90
54788;DHT22;59598;48.112;16.280;2023-01-28T12:35:30;0.60;99.90
54788;DHT22;59598;48.112;16.280;2023-01-28T12:38:14;0.60;99.90
54788;DHT22;59598;48.112;16.280;2023-01-28T12:44:03;0.70;99.90
54788;DHT22;59598;48.112;16.280;2023-01-28T12:49:18;0.80;99.90
54788;DHT22;59598;48.112;16.280;2023-01-28T12:55:42;0.90;99.90
54788;DHT22;59598;48.112;16.280;2023-01-28T13:01:24;0.70;99.90
54788;DHT22;59598;48.112;16.280;2023-01-28T13:04:18;0.70;99.90
54788;DHT22;59598;48.112;16.280;2023-01-28T13:06:59;0.60;99.90
54788;DHT22;59598;48.112;16.280;2023-01-28T13:09:34;0.60;99.90
54788;DHT22;59598;48.112;16.280;2023-01-28T13:12:09;0.50;99.90
54788;DHT22;59598;48.112;16.280;2023-01-28T13:14:42;0.50;99.90
54788;DHT22;59598;48.112;16.280;2023-01-28T13:17:26;0.50;99.90
54788;DHT22;59598;48.112;16.280;2023-01-28T13:19:58;0.60;99.90
54788;DHT22;59598;48.112;16.280;2023-01-28T13:22:36;0.60;99.90
54788;DHT22;59598;48.112;16.280;2023-01-28T13:25:25;0.50;99.90
54788;DHT22;59598;48.112;16.280;2023-01-28T13:28:05;0.50;99.90
54788;DHT22;59598;48.112;16.280;2023-01-28T13:30:47;0.50;99.90
54788;DHT22;59598;48.112;16.280;2023-01-28T13:33:36;0.40;99.90
54788;DHT22;59598;48.112;16.280;2023-01-28T13:42:19;0.40;99.90
54788;DHT22;59598;48.112;16.280;2023-01-28T13:44:52;0.50;99.90
54788;DHT22;59598;48.112;16.280;2023-01-28T13:47:32;0.50;99.90
54788;DHT22;59598;48.112;16.280;2023-01-28T13:50:11;0.40;99.90
54788;DHT22;59598;48.112;16.280;2023-01-28T13:55:29;0.40;99.90
54788;DHT22;59598;48.112;16.280;2023-01-28T14:01:22;0.40;99.90
54788;DHT22;59598;48.112;16.280;2023-01-28T14:16:07;0.40;99.90
54788;DHT22;59598;48.112;16.280;2023-01-28T14:18:26;0.40;99.90
54788;DHT22;59598;48.112;16.280;2023-01-28T14:21:02;0.40;99.90
54788;DHT22;59598;48.112;16.280;2023-01-28T14:23:50;0.40;99.90
54788;DHT22;59598;48.112;16.280;2023-01-28T14:26:33;0.50;99.90
54788;DHT22;59598;48.112;16.280;2023-01-28T14:31:46;0.50;99.90
54788;DHT22;59598;48.112;16.280;2023-01-28T14:34:27;0.50;99.90
54788;DHT22;59598;48.112;16.280;2023-01-28T14:37:12;0.50;99.90
54788;DHT22;59598;48.112;16.280;2023-01-28T14:40:01;0.50;99.90
54788;DHT22;59598;48.112;16.280;2023-01-28T14:42:39;0.50;99.90
54788;DHT22;59598;48.112;16.280;2023-01-28T14:45:51;0.50;99.90
54788;DHT22;59598;48.112;16.280;2023-01-28T14:48:43;0.50;99.90
54788;DHT22;59598;48.112;16.280;2023-01-28T14:59:54;0.40;99.90
54788;DHT22;59598;48.112;16.280;2023-01-28T15:02:29;0.40;99.90
54788;DHT22;59598;48.112;16.280;2023-01-28T15:05:10;0.40;99.90
54788;DHT22;59598;48.112;16.280;2023-01-28T15:07:48;0.40;99.90
54788;DHT22;59598;48.112;16.280;2023-01-28T15:10:30;0.40;99.90
54788;DHT22;59598;48.112;16.280;2023-01-28T15:13:14;0.40;99.90
54788;DHT22;59598;48.112;16.280;2023-01-28T15:15:49;0.30;99.90
54788;DHT22;59598;48.112;16.280;2023-01-28T15:18:32;0.30;99.90
54788;DHT22;59598;48.112;16.280;2023-01-28T15:21:08;0.30;99.90
54788;DHT22;59598;48.112;16.280;2023-01-28T15:23:42;0.30;99.90
54788;DHT22;59598;48.112;16.280;2023-01-28T15:26:22;0.30;99.90
54788;DHT22;59598;48.112;16.280;2023-01-28T15:28:56;0.30;99.90
54788;DHT22;59598;48.112;16.280;2023-01-28T15:31:33;0.30;99.90
54788;DHT22;59598;48.112;16.280;2023-01-28T15:34:14;0.30;99.90
54788;DHT22;59598;48.112;16.280;2023-01-28T15:36:46;0.30;99.90
54788;DHT22;59598;48.112;16.280;2023-01-28T15:39:21;0.30;99.90
54788;DHT22;59598;48.112;16.280;2023-01-28T15:42:05;0.30;99.90
54788;DHT22;59598;48.112;16.280;2023-01-28T15:44:43;0.30;99.90
54788;DHT22;59598;48.112;16.280;2023-01-28T15:47:22;0.30;99.90
54788;DHT22;59598;48.112;16.280;2023-01-28T15:50:01;0.30;99.90
54788;DHT22;59598;48.112;16.280;2023-01-28T15:52:39;0.30;99.90
54788;DHT22;59598;48.112;16.280;2023-01-28T15:55:30;0.30;99.90
54788;DHT22;59598;48.112;16.280;2023-01-28T15:58:26;0.30;99.90
54788;DHT22;59598;48.112;16.280;2023-01-28T16:03:44;0.30;99.90
54788;DHT22;59598;48.112;16.280;2023-01-28T16:06:21;0.30;99.90
54788;DHT22;59598;48.112;16.280;2023-01-28T16:08:55;0.30;99.90
54788;DHT22;59598;48.112;16.280;2023-01-28T16:11:34;0.30;99.90
54788;DHT22;59598;48.112;16.280;2023-01-28T16:16:56;0.30;99.90
54788;DHT22;59598;48.112;16.280;2023-01-28T16:19:49;0.30;99.90
54788;DHT22;59598;48.112;16.280;2023-01-28T16:22:34;0.20;99.90
54788;DHT22;59598;48.112;16.280;2023-01-28T16:27:51;0.20;99.90
54788;DHT22;59598;48.112;16.280;2023-01-28T16:30:23;0.30;99.90
54788;DHT22;59598;48.112;16.280;2023-01-28T16:32:54;0.20;99.90
54788;DHT22;59598;48.112;16.280;2023-01-28T16:35:29;0.20;99.90
54788;DHT22;59598;48.112;16.280;2023-01-28T16:38:00;0.30;99.90
54788;DHT22;59598;48.112;16.280;2023-01-28T16:40:31;0.30;99.90
54788;DHT22;59598;48.112;16.280;2023-01-28T16:43:04;0.30;99.90
54788;DHT22;59598;48.112;16.280;2023-01-28T16:45:35;0.40;99.90
54788;DHT22;59598;48.112;16.280;2023-01-28T16:48:07;0.40;99.90
54788;DHT22;59598;48.112;16.280;2023-01-28T16:50:40;0.40;99.90
54788;DHT22;59598;48.112;16.280;2023-01-28T16:53:20;0.40;99.90
54788;DHT22;59598;48.112;16.280;2023-01-28T16:55:55;0.50;99.90
54788;DHT22;59598;48.112;16.280;2023-01-28T16:58:27;0.50;99.90
54788;DHT22;59598;48.112;16.280;2023-01-28T17:01:00;0.60;99.90
54788;DHT22;59598;48.112;16.280;2023-01-28T17:03:31;0.60;99.90
54788;DHT22;59598;48.112;16.280;2023-01-28T17:06:03;0.50;99.90
54788;DHT22;59598;48.112;16.280;2023-01-28T17:08:34;0.60;99.90
54788;DHT22;59598;48.112;16.280;2023-01-28T17:11:08;0.60;99.90
54788;DHT22;59598;48.112;16.280;2023-01-28T17:13:47;0.60;99.90
54788;DHT22;59598;48.112;16.280;2023-01-28T17:16:19;0.60;99.90
54788;DHT22;59598;48.112;16.280;2023-01-28T17:18:51;0.50;99.90
54788;DHT22;59598;48.112;16.280;2023-01-28T17:21:24;0.50;99.90
54788;DHT22;59598;48.112;16.280;2023-01-28T17:23:55;0.50;99.90
54788;DHT22;59598;48.112;16.280;2023-01-28T17:26:26;0.60;99.90
54788;DHT22;59598;48.112;16.280;2023-01-28T17:29:01;0.50;99.90
54788;DHT22;59598;48.112;16.280;2023-01-28T17:31:34;0.50;99.90
54788;DHT22;59598;48.112;16.280;2023-01-28T17:34:06;0.50;99.90
54788;DHT22;59598;48.112;16.280;2023-01-28T17:36:38;0.50;99.90
54788;DHT22;59598;48.112;16.280;2023-01-28T17:39:11;0.50;99.90
54788;DHT22;59598;48.112;16.280;2023-01-28T17:41:45;0.60;99.90
54788;DHT22;59598;48.112;16.280;2023-01-28T17:44:16;0.60;99.90
54788;DHT22;59598;48.112;16.280;2023-01-28T17:46:47;0.60;99.90
54788;DHT22;59598;48.112;16.280;2023-01-28T17:49:21;0.60;99.90
54788;DHT22;59598;48.112;16.280;2023-01-28T17:51:53;0.60;99.90
54788;DHT22;59598;48.112;16.280;2023-01-28T17:54:24;0.60;99.90
54788;DHT22;59598;48.112;16.280;2023-01-28T17:56:56;0.60;99.90
54788;DHT22;59598;48.112;16.280;2023-01-28T17:59:28;0.60;99.90
54788;DHT22;59598;48.112;16.280;2023-01-28T18:01:59;0.60;99.90
54788;DHT22;59598;48.112;16.280;2023-01-28T18:04:30;0.60;99.90
54788;DHT22;59598;48.112;16.280;2023-01-28T18:07:07;0.60;99.90
54788;DHT22;59598;48.112;16.280;2023-01-28T18:09:41;0.60;99.90
54788;DHT22;59598;48.112;16.280;2023-01-28T18:12:14;0.60;99.90
54788;DHT22;59598;48.112;16.280;2023-01-28T18:14:48;0.60;99.90
54788;DHT22;59598;48.112;16.280;2023-01-28T18:17:19;0.60;99.90
54788;DHT22;59598;48.112;16.280;2023-01-28T18:19:56;0.60;99.90
54788;DHT22;59598;48.112;16.280;2023-01-28T18:22:27;0.60;99.90
54788;DHT22;59598;48.112;16.280;2023-01-28T18:24:58;0.60;99.90
54788;DHT22;59598;48.112;16.280;2023-01-28T18:27:30;0.50;99.90